createdAt,value
2023-02-11T00:01:41.032Z,5.63
2023-02-11T00:04:08.698Z,4.90
2023-02-11T00:06:36.084Z,5.05
2023-02-11T00:09:03.144Z,4.50
2023-02-11T00:11:30.622Z,5.65
2023-02-11T00:13:58.322Z,4.68
2023-02-11T00:16:25.371Z,5.03
2023-02-11T00:18:54.075Z,5.22
2023-02-11T00:21:22.244Z,4.38
2023-02-11T00:23:49.276Z,4.65
2023-02-11T00:26:20.604Z,4.70
2023-02-11T00:28:48.088Z,4.85
2023-02-11T00:31:16.062Z,4.80
2023-02-11T00:33:43.322Z,5.15
2023-02-11T00:36:17.915Z,5.10
2023-02-11T00:38:47.642Z,5.63
2023-02-11T00:41:14.830Z,4.93
2023-02-11T00:43:41.955Z,5.82
2023-02-11T00:46:08.974Z,4.85
2023-02-11T00:48:35.820Z,6.32
2023-02-11T00:51:04.345Z,5.35
2023-02-11T00:53:31.667Z,5.13
2023-02-11T00:55:58.732Z,5.78
2023-02-11T00:58:25.839Z,4.50
2023-02-11T01:00:53.473Z,5.07
2023-02-11T01:03:20.332Z,4.82
2023-02-11T01:05:48.260Z,5.78
2023-02-11T01:08:15.243Z,4.72
2023-02-11T01:10:42.239Z,5.65
2023-02-11T01:13:09.003Z,4.45
2023-02-11T01:15:36.224Z,5.32
2023-02-11T01:18:04.388Z,5.35
2023-02-11T01:20:31.231Z,5.93
2023-02-11T01:22:58.074Z,5.85
2023-02-11T01:25:24.899Z,6.00
2023-02-11T01:27:51.761Z,5.65
2023-02-11T01:30:18.623Z,5.82
2023-02-11T01:32:47.419Z,6.07
2023-02-11T01:35:14.242Z,6.28
2023-02-11T01:37:41.979Z,5.18
2023-02-11T01:40:12.907Z,6.35
2023-02-11T01:42:39.732Z,6.95
2023-02-11T01:45:25.386Z,5.60
2023-02-11T01:47:52.367Z,6.00
2023-02-11T01:50:19.251Z,5.82
2023-02-11T01:52:47.940Z,6.32
2023-02-11T01:55:35.040Z,5.95
2023-02-11T01:58:04.619Z,6.38
2023-02-11T02:00:36.853Z,7.22
2023-02-11T02:03:09.792Z,6.75
2023-02-11T02:05:51.902Z,6.72
2023-02-11T02:08:32.075Z,7.22
2023-02-11T02:11:01.146Z,6.55
2023-02-11T02:13:30.428Z,7.05
2023-02-11T02:15:58.934Z,6.35
2023-02-11T02:18:35.534Z,7.00
2023-02-11T02:21:17.981Z,7.05
2023-02-11T02:24:03.640Z,6.38
2023-02-11T02:26:52.928Z,7.47
2023-02-11T02:29:28.200Z,7.18
2023-02-11T02:31:58.144Z,8.10
2023-02-11T02:34:42.183Z,6.28
2023-02-11T02:37:21.906Z,7.05
2023-02-11T02:39:50.123Z,6.60
2023-02-11T02:42:18.599Z,8.25
2023-02-11T02:44:52.974Z,8.88
2023-02-11T02:47:20.089Z,8.88
2023-02-11T02:49:47.046Z,8.15
2023-02-11T02:52:34.158Z,8.68
2023-02-11T02:55:19.659Z,8.10
2023-02-11T02:57:46.875Z,8.65
2023-02-11T03:00:19.839Z,8.90
2023-02-11T03:07:14.989Z,8.18
2023-02-11T03:09:52.926Z,9.50
2023-02-11T03:12:20.659Z,8.68
2023-02-11T03:14:50.273Z,9.68
2023-02-11T03:17:17.353Z,9.02
2023-02-11T03:19:46.248Z,9.43
2023-02-11T03:22:24.846Z,8.23
2023-02-11T03:24:51.913Z,9.90
2023-02-11T03:27:26.084Z,10.27
2023-02-11T03:30:01.446Z,10.35
2023-02-11T03:32:37.409Z,9.65
2023-02-11T03:35:10.820Z,9.68
2023-02-11T03:37:40.975Z,10.23
2023-02-11T03:40:29.833Z,9.88
2023-02-11T03:43:03.167Z,10.05
2023-02-11T03:45:30.716Z,11.10
2023-02-11T03:48:01.478Z,11.05
2023-02-11T03:50:30.067Z,11.45
2023-02-11T03:52:57.192Z,12.82
2023-02-11T03:55:26.060Z,11.20
2023-02-11T03:57:56.194Z,11.05
2023-02-11T04:00:29.987Z,12.05
2023-02-11T04:02:56.885Z,13.50
2023-02-11T04:05:23.982Z,12.85
2023-02-11T04:07:51.034Z,13.60
2023-02-11T04:10:17.963Z,13.70
2023-02-11T04:12:45.342Z,14.75
2023-02-11T04:15:12.181Z,13.05
2023-02-11T04:17:39.003Z,14.10
2023-02-11T04:20:05.874Z,14.90
2023-02-11T04:22:33.263Z,13.82
2023-02-11T04:25:00.130Z,13.82
2023-02-11T04:27:27.009Z,13.48
2023-02-11T04:29:54.515Z,14.60
2023-02-11T04:32:21.454Z,14.13
2023-02-11T04:34:48.485Z,15.18
2023-02-11T04:37:15.429Z,15.25
2023-02-11T04:39:42.379Z,15.20
2023-02-11T04:42:09.213Z,15.73
2023-02-11T04:44:36.105Z,14.10
2023-02-11T04:47:03.043Z,15.70
2023-02-11T04:49:30.148Z,15.02
2023-02-11T04:51:57.171Z,15.50
2023-02-11T04:54:23.984Z,15.68
2023-02-11T04:56:51.237Z,15.75
2023-02-11T04:59:18.029Z,17.15
2023-02-11T05:01:45.334Z,16.65
2023-02-11T05:04:12.545Z,15.25
2023-02-11T05:06:40.001Z,16.48
2023-02-11T05:09:07.078Z,18.08
2023-02-11T05:11:33.979Z,17.58
2023-02-11T05:14:01.068Z,18.23
2023-02-11T05:16:28.330Z,17.85
2023-02-11T05:18:56.033Z,17.77
2023-02-11T05:21:23.132Z,17.33
2023-02-11T05:23:50.309Z,17.67
2023-02-11T05:26:17.826Z,17.67
2023-02-11T05:28:45.277Z,17.30
2023-02-11T05:31:15.188Z,17.42
2023-02-11T05:33:42.657Z,18.10
2023-02-11T05:36:12.004Z,18.15
2023-02-11T05:38:39.327Z,18.25
2023-02-11T05:41:06.593Z,18.67
2023-02-11T05:43:35.442Z,17.95
2023-02-11T05:46:02.857Z,18.40
2023-02-11T05:48:30.119Z,19.55
2023-02-11T05:50:56.974Z,19.58
2023-02-11T05:53:23.948Z,18.83
2023-02-11T05:55:51.279Z,18.83
2023-02-11T05:58:19.049Z,20.25
2023-02-11T06:00:45.769Z,18.63
2023-02-11T06:03:12.701Z,19.92
2023-02-11T06:05:39.622Z,19.42
2023-02-11T06:08:06.811Z,20.75
2023-02-11T06:10:33.872Z,20.30
2023-02-11T06:13:01.262Z,20.08
2023-02-11T06:15:28.510Z,21.10
2023-02-11T06:17:55.808Z,20.23
2023-02-11T06:20:23.004Z,19.73
2023-02-11T06:22:49.865Z,21.15
2023-02-11T06:25:16.923Z,20.52
2023-02-11T06:27:43.753Z,19.50
2023-02-11T06:30:10.791Z,20.40
2023-02-11T06:32:46.066Z,20.90
2023-02-11T06:35:14.960Z,20.55
2023-02-11T06:37:41.930Z,22.05
2023-02-11T06:40:09.900Z,20.98
2023-02-11T06:42:38.855Z,22.40
2023-02-11T06:45:09.578Z,23.60
2023-02-11T06:47:36.870Z,21.73
2023-02-11T06:50:04.387Z,23.17
2023-02-11T06:52:31.511Z,23.10
2023-02-11T06:54:58.317Z,23.33
2023-02-11T06:57:25.258Z,25.35
2023-02-11T06:59:52.240Z,23.77
2023-02-11T07:02:20.975Z,24.42
2023-02-11T07:04:48.169Z,24.50
2023-02-11T07:07:15.334Z,25.58
2023-02-11T07:09:42.318Z,26.13
2023-02-11T07:12:12.256Z,24.27
2023-02-11T07:14:39.248Z,24.88
2023-02-11T07:17:06.071Z,23.15
2023-02-11T07:19:33.132Z,25.25
2023-02-11T07:21:59.865Z,23.63
2023-02-11T07:24:26.822Z,24.08
2023-02-11T07:26:53.967Z,25.05
2023-02-11T07:29:20.747Z,23.27
2023-02-11T07:31:47.615Z,23.92
2023-02-11T07:34:14.963Z,24.60
2023-02-11T07:36:43.948Z,24.40
2023-02-11T07:39:11.029Z,25.63
2023-02-11T07:41:38.305Z,24.52
2023-02-11T07:44:05.378Z,24.65
2023-02-11T07:46:32.997Z,25.42
2023-02-11T07:49:00.256Z,23.75
2023-02-11T07:51:28.971Z,24.63
2023-02-11T07:53:56.304Z,25.15
2023-02-11T07:56:23.541Z,24.98
2023-02-11T07:58:50.781Z,25.63
2023-02-11T08:01:19.827Z,22.92
2023-02-11T08:03:46.752Z,24.55
2023-02-11T08:06:15.324Z,25.13
2023-02-11T08:08:42.660Z,25.02
2023-02-11T08:11:10.791Z,25.20
2023-02-11T08:13:38.148Z,26.27
2023-02-11T08:16:05.291Z,25.05
2023-02-11T08:18:32.668Z,23.45
2023-02-11T08:21:05.932Z,23.48
2023-02-11T08:23:32.729Z,24.98
2023-02-11T08:26:06.863Z,24.48
2023-02-11T08:28:37.789Z,25.13
2023-02-11T08:31:05.448Z,24.42
2023-02-11T08:33:32.413Z,25.27
2023-02-11T08:35:59.283Z,21.83
2023-02-11T08:38:26.000Z,24.13
2023-02-11T08:40:52.917Z,25.67
2023-02-11T08:43:19.854Z,22.45
2023-02-11T08:45:46.633Z,24.85
2023-02-11T08:48:15.173Z,23.20
2023-02-11T08:50:41.960Z,23.65
2023-02-11T08:53:08.817Z,23.92
2023-02-11T08:55:35.678Z,23.75
2023-02-11T08:58:02.510Z,21.80
2023-02-11T09:00:29.681Z,22.95
2023-02-11T09:02:56.583Z,22.63
2023-02-11T09:05:23.641Z,25.25
2023-02-11T09:07:50.508Z,24.05
2023-02-11T09:10:17.353Z,24.15
2023-02-11T09:12:44.523Z,22.15
2023-02-11T09:15:11.422Z,23.58
2023-02-11T09:17:38.247Z,23.80
2023-02-11T09:20:05.372Z,23.45
2023-02-11T09:22:32.122Z,22.77
2023-02-11T09:24:59.082Z,23.77
2023-02-11T09:27:25.898Z,22.92
2023-02-11T09:29:52.820Z,23.77
2023-02-11T09:32:19.556Z,24.45
2023-02-11T09:34:46.392Z,22.90
2023-02-11T09:37:13.603Z,23.15
2023-02-11T09:39:41.038Z,22.60
2023-02-11T09:42:07.868Z,23.38
2023-02-11T09:44:35.582Z,23.27
2023-02-11T09:47:06.644Z,22.42
2023-02-11T09:49:33.569Z,22.27
2023-02-11T09:52:05.928Z,23.20
2023-02-11T09:55:02.088Z,23.33
2023-02-11T09:57:34.291Z,22.70
2023-02-11T10:00:02.112Z,22.05
2023-02-11T10:02:45.631Z,22.08
2023-02-11T10:05:27.099Z,22.92
2023-02-11T10:08:17.255Z,22.15
2023-02-11T10:10:43.968Z,21.52
2023-02-11T10:13:19.812Z,22.02
2023-02-11T10:16:05.437Z,21.42
2023-02-11T10:18:51.287Z,21.13
2023-02-11T10:21:37.106Z,22.25
2023-02-11T10:24:10.076Z,21.70
2023-02-11T10:26:37.184Z,21.90
2023-02-11T10:29:11.560Z,22.25
2023-02-11T10:31:41.179Z,22.38
2023-02-11T10:34:12.020Z,21.42
2023-02-11T10:36:40.979Z,21.20
2023-02-11T10:39:14.042Z,20.63
2023-02-11T10:41:45.350Z,21.73
2023-02-11T10:44:31.136Z,21.02
2023-02-11T10:46:59.932Z,22.45
2023-02-11T10:49:34.405Z,19.63
2023-02-11T10:52:15.356Z,19.98
2023-02-11T10:54:42.453Z,20.55
2023-02-11T10:57:16.231Z,19.65
2023-02-11T10:59:43.663Z,22.02
2023-02-11T11:02:23.798Z,20.60
2023-02-11T11:04:55.923Z,20.77
2023-02-11T11:07:24.847Z,20.85
2023-02-11T11:09:56.966Z,21.08
2023-02-11T11:12:44.098Z,20.60
2023-02-11T11:15:11.191Z,19.85
2023-02-11T11:17:38.259Z,18.92
2023-02-11T11:20:22.531Z,19.88
2023-02-11T11:22:50.657Z,18.95
2023-02-11T11:25:28.320Z,20.63
2023-02-11T11:27:57.574Z,18.08
2023-02-11T11:30:27.096Z,20.05
2023-02-11T11:32:54.053Z,19.23
2023-02-11T11:35:25.849Z,19.58
2023-02-11T11:37:54.097Z,19.77
2023-02-11T11:40:31.793Z,20.08
2023-02-11T11:43:25.246Z,20.42
2023-02-11T11:45:56.050Z,20.60
2023-02-11T11:48:26.341Z,19.23
2023-02-11T11:50:55.934Z,20.42
2023-02-11T11:53:34.402Z,20.55
2023-02-11T11:56:01.525Z,18.95
2023-02-11T11:58:28.967Z,19.65
2023-02-11T12:01:24.943Z,19.60
2023-02-11T12:03:57.958Z,19.75
2023-02-11T12:06:39.364Z,21.02
2023-02-11T12:09:18.260Z,20.13
2023-02-11T12:11:54.252Z,19.92
2023-02-11T12:14:30.248Z,21.88
2023-02-11T12:17:03.258Z,19.25
2023-02-11T12:19:30.161Z,19.65
2023-02-11T12:22:05.872Z,19.60
2023-02-11T12:24:32.921Z,19.30
2023-02-11T12:26:59.731Z,19.20
2023-02-11T12:29:46.967Z,18.25
2023-02-11T12:32:33.483Z,17.92
2023-02-11T12:40:03.316Z,17.73
2023-02-11T12:45:16.195Z,17.35
2023-02-11T12:47:51.889Z,17.60
2023-02-11T12:50:37.388Z,18.98
2023-02-11T12:53:13.578Z,17.80
2023-02-11T12:55:42.591Z,17.25
2023-02-11T12:58:14.983Z,18.67
2023-02-11T13:00:44.983Z,16.67
2023-02-11T13:03:16.910Z,16.67
2023-02-11T13:05:49.631Z,17.90
2023-02-11T13:08:19.212Z,16.75
2023-02-11T13:10:47.926Z,18.33
2023-02-11T13:13:27.680Z,17.63
2023-02-11T13:16:08.673Z,17.45
2023-02-11T13:18:53.729Z,16.00
2023-02-11T13:21:27.185Z,17.02
2023-02-11T13:24:01.432Z,17.92
2023-02-11T13:26:38.309Z,16.58
2023-02-11T13:29:17.539Z,17.33
2023-02-11T13:31:52.937Z,16.50
2023-02-11T13:34:27.374Z,17.90
2023-02-11T13:36:56.186Z,16.65
2023-02-11T13:39:23.247Z,17.02
2023-02-11T13:41:52.914Z,17.20
2023-02-11T13:44:23.524Z,17.58
2023-02-11T13:46:54.179Z,16.70
2023-02-11T13:49:23.436Z,16.77
2023-02-11T13:51:51.136Z,17.10
2023-02-11T13:54:23.815Z,16.08
2023-02-11T13:57:10.472Z,16.88
2023-02-11T13:59:37.300Z,17.25
2023-02-11T14:02:24.645Z,16.80
2023-02-11T14:05:22.659Z,17.90
2023-02-11T14:08:31.427Z,15.18
2023-02-11T14:11:02.669Z,15.60
2023-02-11T14:13:29.480Z,16.15
2023-02-11T14:16:08.725Z,15.32
2023-02-11T14:18:44.844Z,14.82
2023-02-11T14:23:40.863Z,12.70
2023-02-11T14:26:20.154Z,11.98
2023-02-11T14:28:52.845Z,10.98
2023-02-11T14:31:25.841Z,10.90
2023-02-11T14:34:00.784Z,10.43
2023-02-11T14:36:53.952Z,10.88
2023-02-11T14:39:45.299Z,9.98
2023-02-11T14:42:19.027Z,10.55
2023-02-11T14:44:46.962Z,11.00
2023-02-11T14:47:18.620Z,11.15
2023-02-11T14:49:45.435Z,10.93
2023-02-11T14:52:17.246Z,10.88
2023-02-11T14:54:44.856Z,11.32
2023-02-11T14:57:19.116Z,10.32
2023-02-11T14:59:58.957Z,9.55
2023-02-11T15:02:29.296Z,9.60
2023-02-11T15:05:13.700Z,10.93
2023-02-11T15:07:51.565Z,9.15
2023-02-11T15:10:57.318Z,8.75
2023-02-11T15:13:31.336Z,9.18
2023-02-11T15:16:01.122Z,8.73
2023-02-11T15:18:32.851Z,9.32
2023-02-11T15:20:59.846Z,8.93
2023-02-11T15:23:28.174Z,9.35
2023-02-11T15:25:56.535Z,9.57
2023-02-11T15:28:25.635Z,9.68
2023-02-11T15:31:01.773Z,9.27
2023-02-11T15:35:57.868Z,9.15
2023-02-11T15:38:24.770Z,9.55
2023-02-11T15:41:14.846Z,9.43
2023-02-11T15:43:43.527Z,9.75
2023-02-11T15:46:12.812Z,9.88
2023-02-11T15:48:45.304Z,10.43
2023-02-11T15:51:25.265Z,9.38
2023-02-11T15:53:58.550Z,8.32
2023-02-11T15:56:37.586Z,8.88
2023-02-11T15:59:16.492Z,10.40
2023-02-11T16:01:44.888Z,8.77
2023-02-11T16:04:20.170Z,9.18
2023-02-11T16:06:48.177Z,9.85
2023-02-11T16:09:15.290Z,9.27
2023-02-11T16:11:48.376Z,8.63
2023-02-11T16:14:39.125Z,9.57
2023-02-11T16:17:18.038Z,8.43
2023-02-11T16:19:46.507Z,7.72
2023-02-11T16:22:22.588Z,8.32
2023-02-11T16:24:51.168Z,8.30
2023-02-11T16:27:25.669Z,8.65
2023-02-11T16:29:52.950Z,8.43
2023-02-11T16:32:21.779Z,8.20
2023-02-11T16:34:48.733Z,7.07
2023-02-11T16:37:15.994Z,6.82
2023-02-11T16:39:42.850Z,8.20
2023-02-11T16:42:11.201Z,8.95
2023-02-11T16:44:38.229Z,9.45
2023-02-11T16:47:06.939Z,9.23
2023-02-11T16:49:35.856Z,8.70
2023-02-11T16:52:06.152Z,9.05
2023-02-11T16:54:33.394Z,8.00
2023-02-11T16:57:00.651Z,8.75
2023-02-11T16:59:27.570Z,8.70
2023-02-11T17:01:55.280Z,8.55
2023-02-11T17:04:24.949Z,7.45
2023-02-11T17:06:52.063Z,7.78
2023-02-11T17:09:20.792Z,8.02
2023-02-11T17:11:47.900Z,7.30
2023-02-11T17:14:15.344Z,7.40
2023-02-11T17:16:42.674Z,7.45
2023-02-11T17:19:12.527Z,6.95
2023-02-11T17:21:43.191Z,6.90
2023-02-11T17:24:11.148Z,7.55
2023-02-11T17:26:38.611Z,6.78
2023-02-11T17:29:06.240Z,6.30
2023-02-11T17:31:33.981Z,6.43
2023-02-11T17:34:01.316Z,7.25
2023-02-11T17:36:28.102Z,6.30
2023-02-11T17:38:55.167Z,6.72
2023-02-11T17:41:22.765Z,6.47
2023-02-11T17:43:49.781Z,6.80
2023-02-11T17:46:16.696Z,7.10
2023-02-11T17:48:45.644Z,7.15
2023-02-11T17:51:26.180Z,7.95
2023-02-11T17:53:53.574Z,8.98
2023-02-11T17:56:20.642Z,9.05
2023-02-11T17:58:47.510Z,9.13
2023-02-11T18:01:14.810Z,9.43
2023-02-11T18:03:41.864Z,9.20
2023-02-11T18:06:08.949Z,8.10
2023-02-11T18:08:36.228Z,8.30
2023-02-11T18:11:03.197Z,8.00
2023-02-11T18:13:30.018Z,8.25
2023-02-11T18:16:01.758Z,7.63
2023-02-11T18:18:28.629Z,7.88
2023-02-11T18:20:56.704Z,9.10
2023-02-11T18:23:23.508Z,9.20
2023-02-11T18:25:50.776Z,9.18
2023-02-11T18:28:18.049Z,9.70
2023-02-11T18:30:45.323Z,9.85
2023-02-11T18:33:14.700Z,10.35
2023-02-11T18:35:42.123Z,11.13
2023-02-11T18:38:09.635Z,9.52
2023-02-11T18:40:39.405Z,10.02
2023-02-11T18:43:06.566Z,9.38
2023-02-11T18:45:33.727Z,9.18
2023-02-11T18:48:05.460Z,9.65
2023-02-11T18:50:32.648Z,9.23
2023-02-11T18:52:59.521Z,8.60
2023-02-11T18:55:26.526Z,8.57
2023-02-11T18:57:53.451Z,9.70
2023-02-11T19:00:20.898Z,9.35
2023-02-11T19:02:47.859Z,9.65
2023-02-11T19:05:15.837Z,9.35
2023-02-11T19:07:42.809Z,9.48
2023-02-11T19:10:10.247Z,10.10
2023-02-11T19:12:39.518Z,10.13
2023-02-11T19:15:07.162Z,10.15
2023-02-11T19:17:34.037Z,9.90
2023-02-11T19:20:01.346Z,9.82
2023-02-11T19:22:28.323Z,10.98
2023-02-11T19:24:55.251Z,11.70
2023-02-11T19:27:22.015Z,12.60
2023-02-11T19:29:48.914Z,11.82
2023-02-11T19:32:15.965Z,12.02
2023-02-11T19:34:42.967Z,12.35
2023-02-11T19:37:12.875Z,12.43
2023-02-11T19:39:41.197Z,12.05
2023-02-11T19:42:08.125Z,11.80
2023-02-11T19:44:35.101Z,12.55
2023-02-11T19:47:02.396Z,12.27
2023-02-11T19:49:29.482Z,12.30
2023-02-11T19:51:58.388Z,12.00
2023-02-11T19:54:26.594Z,11.95
2023-02-11T19:56:53.339Z,11.35
2023-02-11T19:59:21.358Z,11.77
2023-02-11T20:01:49.233Z,12.55
2023-02-11T20:04:16.630Z,12.90
2023-02-11T20:06:43.750Z,12.73
2023-02-11T20:09:13.638Z,11.88
2023-02-11T20:11:41.134Z,12.48
2023-02-11T20:14:09.010Z,13.95
2023-02-11T20:16:47.618Z,13.63
2023-02-11T20:19:18.510Z,14.98
2023-02-11T20:21:47.388Z,14.20
2023-02-11T20:24:16.440Z,14.02
2023-02-11T20:26:45.472Z,13.50
2023-02-11T20:29:12.593Z,14.60
2023-02-11T20:31:39.734Z,14.73
2023-02-11T20:34:07.259Z,14.70
2023-02-11T20:36:35.931Z,15.70
2023-02-11T20:39:03.513Z,16.17
2023-02-11T20:41:33.935Z,14.15
2023-02-11T20:44:02.963Z,15.25
2023-02-11T20:46:31.704Z,13.85
2023-02-11T20:48:59.247Z,15.00
2023-02-11T20:51:27.892Z,15.38
2023-02-11T20:53:54.907Z,17.23
2023-02-11T20:56:26.407Z,16.42
2023-02-11T20:58:53.434Z,15.57
2023-02-11T21:01:24.847Z,15.45
2023-02-11T21:03:59.675Z,16.33
2023-02-11T21:06:27.353Z,16.92
2023-02-11T21:08:54.529Z,19.48
2023-02-11T21:11:21.450Z,17.23
2023-02-11T21:13:48.751Z,18.00
2023-02-11T21:16:17.461Z,16.23
2023-02-11T21:18:45.058Z,15.45
2023-02-11T21:21:11.989Z,15.68
2023-02-11T21:23:39.962Z,15.73
2023-02-11T21:26:07.260Z,14.55
2023-02-11T21:28:34.276Z,14.52
2023-02-11T21:31:01.728Z,14.32
2023-02-11T21:33:29.069Z,13.73
2023-02-11T21:35:57.273Z,14.25
2023-02-11T21:38:24.792Z,14.25
2023-02-11T21:40:52.059Z,13.65
2023-02-11T21:43:19.123Z,13.95
2023-02-11T21:45:46.978Z,14.40
2023-02-11T21:48:15.100Z,14.90
2023-02-11T21:50:42.849Z,14.52
2023-02-11T21:53:10.217Z,14.70
2023-02-11T21:55:38.708Z,14.13
2023-02-11T21:58:06.358Z,13.50
2023-02-11T22:00:33.969Z,13.40
2023-02-11T22:03:01.383Z,12.60
2023-02-11T22:05:28.595Z,13.30
2023-02-11T22:07:55.804Z,12.52
2023-02-11T22:10:22.778Z,13.25
2023-02-11T22:12:49.983Z,13.35
2023-02-11T22:15:16.788Z,13.07
2023-02-11T22:17:43.810Z,12.63
2023-02-11T22:20:10.920Z,12.57
2023-02-11T22:22:38.087Z,11.95
2023-02-11T22:25:05.299Z,11.48
2023-02-11T22:27:32.409Z,12.80
2023-02-11T22:29:59.350Z,12.55
2023-02-11T22:32:26.515Z,11.93
2023-02-11T22:34:53.706Z,12.00
2023-02-11T22:37:20.861Z,12.13
2023-02-11T22:39:47.920Z,12.32
2023-02-11T22:42:15.279Z,11.50
2023-02-11T22:44:42.325Z,11.93
2023-02-11T22:47:09.105Z,12.40
2023-02-11T22:49:36.309Z,11.93
2023-02-11T22:52:03.898Z,11.55
2023-02-11T22:54:31.589Z,11.70
2023-02-11T22:56:58.664Z,12.68
2023-02-11T22:59:25.628Z,11.27
2023-02-11T23:01:52.963Z,12.00
2023-02-11T23:04:21.093Z,12.50
2023-02-11T23:06:47.863Z,12.88
2023-02-11T23:09:15.161Z,12.38
2023-02-11T23:11:42.233Z,13.18
2023-02-11T23:14:12.071Z,12.38
2023-02-11T23:16:39.384Z,11.25
2023-02-11T23:19:07.838Z,11.95
2023-02-11T23:21:39.100Z,13.15
2023-02-11T23:24:15.696Z,13.15
2023-02-11T23:26:43.676Z,12.05
2023-02-11T23:29:11.158Z,11.40
2023-02-11T23:31:40.363Z,11.32
2023-02-11T23:34:07.783Z,11.70
2023-02-11T23:36:34.723Z,13.38
2023-02-11T23:39:01.618Z,12.43
2023-02-11T23:41:28.557Z,11.93
2023-02-11T23:43:56.453Z,12.10
2023-02-11T23:46:25.182Z,12.35
2023-02-11T23:48:52.514Z,12.52
2023-02-11T23:51:19.572Z,13.43
2023-02-11T23:53:49.259Z,14.35
2023-02-11T23:56:17.433Z,13.15
2023-02-11T23:58:46.333Z,13.00
